Time;durP1;ratioP1;P1;durP2;ratioP2;P2;SDS_P1;SDS_P2;PMS_P1;PMS_P2;Temp;Humidity;BMP_temperature;BMP_pressure;BME280_temperature;BME280_humidity;BME280_pressure;Samples;Min_cycle;Max_cycle;Signal;HPM_P1;HPM_P2
2022/10/15 00:02:29;;;;;;;41.92;22.08;;;;;;;11.66;100.00;100782.50;5203180;28;20036;-70
2022/10/15 00:05:00;;;;;;;41.42;20.83;;;;;;;11.65;100.00;100786.22;5203330;28;20068;-70
2022/10/15 00:07:30;;;;;;;43.58;21.88;;;;;;;11.62;100.00;100780.34;5202738;28;20025;-71
2022/10/15 00:10:01;;;;;;;45.03;23.23;;;;;;;11.59;100.00;100791.44;5202196;28;20048;-70
2022/10/15 00:12:34;;;;;;;43.88;22.13;;;;;;;11.56;100.00;100787.25;5203560;28;20079;-71
2022/10/15 00:15:05;;;;;;;45.15;21.27;;;;;;;11.56;100.00;100795.31;5202644;28;20045;-71
2022/10/15 00:17:36;;;;;;;48.17;22.63;;;;;;;11.61;100.00;100792.13;5202810;28;20037;-70
2022/10/15 00:20:09;;;;;;;53.45;23.20;;;;;;;11.66;100.00;100793.25;5203849;28;20486;-71
2022/10/15 00:22:40;;;;;;;56.72;24.88;;;;;;;11.69;100.00;100797.44;5203558;28;20029;-71
2022/10/15 00:25:11;;;;;;;71.90;29.17;;;;;;;11.75;100.00;100795.91;5203457;28;20518;-71
2022/10/15 00:27:41;;;;;;;70.43;28.17;;;;;;;11.81;100.00;100790.66;5202592;28;20032;-71
2022/10/15 00:30:12;;;;;;;83.28;31.80;;;;;;;11.86;100.00;100798.25;5203732;28;20020;-71
2022/10/15 00:32:42;;;;;;;68.65;29.35;;;;;;;11.91;100.00;100799.38;5203559;28;20052;-71
2022/10/15 00:35:13;;;;;;;85.55;32.22;;;;;;;11.98;100.00;100809.44;5203482;28;20022;-71
2022/10/15 00:37:44;;;;;;;83.70;33.25;;;;;;;12.02;100.00;100795.47;5202544;28;20470;-70
2022/10/15 00:40:15;;;;;;;94.70;35.58;;;;;;;12.07;100.00;100798.47;5203030;28;20028;-71
2022/10/15 00:42:45;;;;;;;82.50;31.85;;;;;;;12.12;100.00;100806.81;5203718;28;20507;-71
2022/10/15 00:45:16;;;;;;;85.10;32.42;;;;;;;12.15;100.00;100806.47;5203579;28;20030;-71
2022/10/15 00:47:48;;;;;;;87.72;34.00;;;;;;;12.19;100.00;100815.00;5203170;28;20025;-71
2022/10/15 00:50:22;;;;;;;101.20;35.33;;;;;;;12.23;100.00;100818.19;5203617;28;20387;-71
2022/10/15 00:52:59;;;;;;;91.55;35.00;;;;;;;12.27;100.00;100808.75;5203790;28;20163;-71
2022/10/15 00:55:33;;;;;;;111.20;38.13;;;;;;;12.31;100.00;100802.84;5203710;28;20027;-71
2022/10/15 00:58:16;;;;;;;105.80;38.03;;;;;;;12.35;100.00;100796.09;5203319;28;20017;-71
2022/10/15 01:00:47;;;;;;;109.28;37.38;;;;;;;12.37;100.00;100788.69;5204392;28;20037;-71
2022/10/15 01:03:18;;;;;;;104.85;36.60;;;;;;;12.39;100.00;100783.94;5205548;28;20033;-71
2022/10/15 01:05:52;;;;;;;101.60;36.38;;;;;;;12.41;100.00;100775.72;5203971;28;20037;-71
2022/10/15 01:08:22;;;;;;;101.40;39.95;;;;;;;12.43;100.00;100776.34;5204686;28;20021;-71
2022/10/15 01:11:11;;;;;;;111.32;38.50;;;;;;;12.44;100.00;100770.78;5205698;28;20030;-71
2022/10/15 01:14:19;;;;;;;112.20;40.08;;;;;;;12.47;100.00;100776.84;5205329;28;20029;-71
2022/10/15 01:17:20;;;;;;;111.05;39.97;;;;;;;12.45;100.00;100774.34;5204544;28;20022;-71
2022/10/15 01:20:09;;;;;;;104.95;38.78;;;;;;;12.46;100.00;100767.94;5195113;28;20051;-71
2022/10/15 01:23:28;;;;;;;110.25;40.47;;;;;;;12.46;100.00;100767.94;5204449;28;20491;-71
2022/10/15 01:26:20;;;;;;;108.10;39.97;;;;;;;12.46;100.00;100767.94;5203814;28;20357;-70
2022/10/15 01:29:23;;;;;;;102.60;38.28;;;;;;;12.47;100.00;100774.16;5207137;28;20112;-71
2022/10/15 01:32:06;;;;;;;110.35;40.15;;;;;;;12.47;100.00;100764.22;5207316;28;20029;-71
2022/10/15 01:35:21;;;;;;;117.63;42.15;;;;;;;12.51;100.00;100762.84;5207391;28;20025;-70
2022/10/15 01:38:02;;;;;;;110.47;41.88;;;;;;;12.51;100.00;100770.91;5193266;28;20072;-71
2022/10/15 01:40:45;;;;;;;118.70;43.28;;;;;;;12.56;100.00;100762.31;5205945;28;20036;-71
2022/10/15 01:43:23;;;;;;;118.03;42.50;;;;;;;12.57;100.00;100759.44;5207352;28;20034;-71
2022/10/15 01:46:00;;;;;;;117.43;44.20;;;;;;;12.57;100.00;100756.72;5207007;28;20096;-71
2022/10/15 01:48:34;;;;;;;124.90;45.25;;;;;;;12.58;100.00;100755.72;5205855;28;20065;-71
2022/10/15 01:51:06;;;;;;;119.07;44.22;;;;;;;12.57;100.00;100754.03;5206288;28;20034;-71
2022/10/15 01:53:39;;;;;;;126.93;45.22;;;;;;;12.56;100.00;100747.00;5206306;28;20029;-71
2022/10/15 01:56:14;;;;;;;118.38;42.83;;;;;;;12.55;100.00;100758.78;5206663;28;20301;-71
2022/10/15 01:58:54;;;;;;;121.72;43.78;;;;;;;12.53;100.00;100752.72;5205730;28;20017;-70
2022/10/15 02:01:25;;;;;;;117.80;41.95;;;;;;;12.51;100.00;100745.88;5205901;28;20024;-71
2022/10/15 02:04:23;;;;;;;109.80;41.92;;;;;;;12.49;100.00;100746.03;5206524;28;20025;-71
2022/10/15 02:07:02;;;;;;;118.72;44.80;;;;;;;12.49;100.00;100740.66;5205665;28;20018;-71
2022/10/15 02:09:55;;;;;;;124.28;43.67;;;;;;;12.51;100.00;100738.63;5205957;28;20037;-71
2022/10/15 02:12:57;;;;;;;112.35;42.15;;;;;;;12.55;100.00;100731.00;5206560;28;20112;-71
2022/10/15 02:15:46;;;;;;;124.40;43.67;;;;;;;12.54;100.00;100718.59;5206203;28;20056;-71
2022/10/15 02:18:48;;;;;;;121.05;42.75;;;;;;;12.53;100.00;100698.91;5205507;28;20032;-71
2022/10/15 02:21:29;;;;;;;119.03;43.47;;;;;;;12.51;100.00;100710.91;5204726;28;20519;-71
2022/10/15 02:24:11;;;;;;;119.70;41.83;;;;;;;12.44;100.00;100702.69;5205679;28;20057;-71
2022/10/15 02:26:43;;;;;;;121.43;42.50;;;;;;;12.41;100.00;100697.69;5205894;28;20116;-71
2022/10/15 02:29:19;;;;;;;117.75;42.83;;;;;;;12.39;100.00;100699.72;5205335;28;20108;-71
2022/10/15 02:31:50;;;;;;;;;;;;;;;12.36;100.00;100692.03;5206065;28;20109;-71
2022/10/15 02:34:24;;;;;;;117.57;40.70;;;;;;;12.31;100.00;100700.63;5205487;28;19909;-71
2022/10/15 02:36:57;;;;;;;121.80;41.72;;;;;;;12.28;100.00;100697.47;5204217;28;20029;-70
2022/10/15 02:39:28;;;;;;;127.03;42.90;;;;;;;12.23;100.00;100695.31;5204072;28;20029;-71
2022/10/15 02:42:00;;;;;;;127.22;44.10;;;;;;;12.16;100.00;100692.50;5205564;28;20029;-71
2022/10/15 02:44:30;;;;;;;141.48;46.58;;;;;;;12.09;100.00;100691.53;5204216;28;20068;-71
2022/10/15 02:47:04;;;;;;;114.95;42.78;;;;;;;12.03;100.00;100689.56;5204774;28;20057;-72
2022/10/15 02:49:34;;;;;;;132.18;44.72;;;;;;;12.01;100.00;100693.47;5204086;28;20029;-71
2022/10/15 02:52:05;;;;;;;139.13;46.63;;;;;;;11.97;100.00;100698.38;5205355;28;20028;-70
2022/10/15 02:54:35;;;;;;;142.35;44.15;;;;;;;11.93;100.00;100692.50;5205386;28;20021;-71
2022/10/15 02:57:06;;;;;;;144.60;47.53;;;;;;;11.91;100.00;100699.09;5204642;28;20289;-71
2022/10/15 02:59:36;;;;;;;138.30;46.22;;;;;;;11.87;100.00;100700.47;5204809;28;20044;-71
2022/10/15 03:02:07;;;;;;;145.77;47.72;;;;;;;11.86;100.00;100698.78;5203960;28;20025;-72
2022/10/15 03:04:38;;;;;;;163.35;47.47;;;;;;;11.89;100.00;100695.72;5204801;28;20025;-71
2022/10/15 03:07:08;;;;;;;151.50;46.00;;;;;;;11.87;100.00;100692.41;5204528;28;20037;-72
2022/10/15 03:09:39;;;;;;;150.75;47.03;;;;;;;11.82;100.00;100684.88;5204881;28;20113;-72
2022/10/15 03:12:09;;;;;;;137.90;45.10;;;;;;;11.79;100.00;100687.84;5204657;28;20368;-72
2022/10/15 03:14:39;;;;;;;145.65;45.25;;;;;;;11.77;100.00;100689.06;5204898;28;20049;-71
2022/10/15 03:17:10;;;;;;;136.25;43.38;;;;;;;11.74;100.00;100692.94;5204478;28;20031;-71
2022/10/15 03:19:41;;;;;;;145.48;45.45;;;;;;;11.78;100.00;100693.41;5204458;28;20044;-71
2022/10/15 03:22:11;;;;;;;136.48;43.60;;;;;;;11.80;100.00;100692.25;5205034;28;20055;-71
2022/10/15 03:24:42;;;;;;;144.98;44.60;;;;;;;11.84;100.00;100696.25;5204163;28;20021;-71
2022/10/15 03:27:12;;;;;;;129.18;41.38;;;;;;;11.93;100.00;100697.88;5204005;28;20036;-71
2022/10/15 03:29:42;;;;;;;143.93;44.30;;;;;;;11.95;100.00;100683.41;5204602;28;20048;-71
2022/10/15 03:32:13;;;;;;;138.68;41.08;;;;;;;11.91;100.00;100670.34;5204246;28;20029;-71
2022/10/15 03:34:43;;;;;;;124.93;38.80;;;;;;;11.89;100.00;100663.47;5204362;28;20029;-71
2022/10/15 03:37:17;;;;;;;121.60;39.55;;;;;;;11.82;100.00;100663.34;5203319;28;20061;-71
2022/10/15 03:39:47;;;;;;;119.30;38.38;;;;;;;11.76;100.00;100657.84;5204276;28;20451;-71
2022/10/15 03:42:18;;;;;;;121.07;37.20;;;;;;;11.72;100.00;100651.13;5204367;28;20049;-71
2022/10/15 03:44:48;;;;;;;120.22;38.53;;;;;;;11.65;100.00;100659.91;5204295;28;20029;-71
2022/10/15 03:47:19;;;;;;;113.68;35.75;;;;;;;11.61;100.00;100658.59;5203642;28;20021;-71
2022/10/15 03:49:49;;;;;;;123.72;38.35;;;;;;;11.57;100.00;100662.66;5203120;28;20095;-71
2022/10/15 03:52:20;;;;;;;130.02;37.85;;;;;;;11.57;100.00;100651.06;5204106;28;20060;-71
2022/10/15 03:54:50;;;;;;;136.40;38.90;;;;;;;11.61;100.00;100655.91;5204210;28;20060;-71
2022/10/15 03:57:21;;;;;;;124.40;37.45;;;;;;;11.64;100.00;100658.22;5203399;28;20056;-71
2022/10/15 03:59:51;;;;;;;130.18;38.15;;;;;;;11.64;100.00;100655.53;5203883;28;20108;-71
2022/10/15 04:02:23;;;;;;;126.97;38.10;;;;;;;11.67;100.00;100652.50;5203792;28;20037;-71
2022/10/15 04:04:54;;;;;;;130.35;38.60;;;;;;;11.72;100.00;100656.50;5203513;28;20048;-71
2022/10/15 04:07:24;;;;;;;121.10;37.42;;;;;;;11.66;100.00;100648.16;5203441;28;20021;-72
2022/10/15 04:09:55;;;;;;;114.15;33.78;;;;;;;11.63;100.00;100651.19;5203728;28;20536;-71
2022/10/15 04:12:25;;;;;;;106.82;34.20;;;;;;;11.57;100.00;100645.69;5203805;28;20044;-71
2022/10/15 04:14:55;;;;;;;109.25;34.63;;;;;;;11.50;100.00;100642.88;5203516;28;20029;-71
2022/10/15 04:17:26;;;;;;;112.43;32.03;;;;;;;11.43;100.00;100641.06;5203132;28;20026;-71
2022/10/15 04:19:57;;;;;;;112.53;34.30;;;;;;;11.35;100.00;100637.44;5203706;28;20049;-71
2022/10/15 04:22:27;;;;;;;109.68;33.42;;;;;;;11.30;100.00;100637.13;5203607;28;20029;-71
2022/10/15 04:24:58;;;;;;;103.85;30.55;;;;;;;11.27;100.00;100642.00;5203439;28;20104;-71
2022/10/15 04:27:28;;;;;;;121.75;35.97;;;;;;;11.26;100.00;100640.34;5202760;28;20030;-71
2022/10/15 04:29:59;;;;;;;116.80;35.50;;;;;;;11.25;100.00;100634.13;5203478;28;20033;-71
2022/10/15 04:32:29;;;;;;;101.90;31.52;;;;;;;11.24;100.00;100626.22;5203323;28;20025;-71
2022/10/15 04:35:00;;;;;;;110.70;32.58;;;;;;;11.19;100.00;100637.50;5203486;28;20032;-71
2022/10/15 04:37:34;;;;;;;118.22;34.78;;;;;;;11.13;100.00;100630.16;5202179;28;20033;-70
2022/10/15 04:40:06;;;;;;;88.67;28.70;;;;;;;11.04;100.00;100626.66;5203426;28;20044;-71
2022/10/15 04:42:36;;;;;;;95.93;28.90;;;;;;;10.97;100.00;100630.22;5203405;28;20283;-71
2022/10/15 04:45:07;;;;;;;90.75;28.42;;;;;;;10.85;100.00;100635.97;5202111;28;20025;-71
2022/10/15 04:47:38;;;;;;;90.97;28.48;;;;;;;10.75;100.00;100634.50;5202854;28;20031;-70
2022/10/15 04:50:09;;;;;;;77.35;25.90;;;;;;;10.66;100.00;100635.53;5203199;28;20021;-71
2022/10/15 04:52:39;;;;;;;97.25;28.20;;;;;;;10.60;100.00;100637.06;5203714;28;20489;-71
2022/10/15 04:55:10;;;;;;;79.00;25.33;;;;;;;10.58;100.00;100639.06;5203264;28;20018;-71
2022/10/15 04:57:40;;;;;;;88.65;26.23;;;;;;;10.57;100.00;100634.72;5202772;28;20021;-71
2022/10/15 05:00:11;;;;;;;72.55;21.38;;;;;;;10.55;100.00;100636.75;5204341;28;20053;-71
2022/10/15 05:02:42;;;;;;;107.68;30.67;;;;;;;10.59;100.00;100638.03;5206019;28;20026;-71
2022/10/15 05:05:12;;;;;;;117.88;33.05;;;;;;;10.67;100.00;100640.72;5207226;28;20043;-71
2022/10/15 05:07:43;;;;;;;128.10;34.83;;;;;;;10.78;100.00;100648.41;5206766;28;20021;-71
2022/10/15 05:10:13;;;;;;;130.23;34.05;;;;;;;10.93;100.00;100650.38;5207145;28;20021;-71
2022/10/15 05:12:44;;;;;;;155.75;36.25;;;;;;;11.09;100.00;100648.47;5207500;28;20025;-72
2022/10/15 05:15:14;;;;;;;142.55;34.72;;;;;;;11.18;100.00;100648.41;5206934;28;20036;-71
2022/10/15 05:17:45;;;;;;;136.18;33.90;;;;;;;11.23;100.00;100652.25;5206449;28;20020;-72
2022/10/15 05:20:15;;;;;;;110.70;29.75;;;;;;;11.23;100.00;100654.09;5207160;28;20026;-71
2022/10/15 05:22:46;;;;;;;111.57;29.95;;;;;;;11.18;100.00;100648.41;5206955;28;20036;-72
2022/10/15 05:25:16;;;;;;;89.82;27.70;;;;;;;11.17;100.00;100641.38;5206998;28;20025;-71
2022/10/15 05:27:47;;;;;;;101.30;27.63;;;;;;;11.15;100.00;100636.19;5205846;28;20037;-71
2022/10/15 05:30:17;;;;;;;78.30;23.58;;;;;;;11.10;100.00;100644.78;5206899;28;20092;-72
2022/10/15 05:32:51;;;;;;;89.47;23.08;;;;;;;11.03;100.00;100638.41;5206644;28;20437;-71
2022/10/15 05:35:22;;;;;;;342.13;31.33;;;;;;;10.97;100.00;100638.28;5205389;28;20033;-71
2022/10/15 05:37:52;;;;;;;103.53;23.10;;;;;;;10.88;100.00;100638.28;5200401;28;20029;-71
2022/10/15 05:40:23;;;;;;;85.78;24.23;;;;;;;10.85;100.00;100637.81;5204428;28;20029;-71
2022/10/15 05:42:56;;;;;;;109.53;29.45;;;;;;;10.85;100.00;100641.34;5206955;28;20028;-71
2022/10/15 05:45:27;;;;;;;162.55;30.42;;;;;;;10.93;100.00;100631.56;5206593;28;20029;-71
2022/10/15 05:47:57;;;;;;;113.93;29.67;;;;;;;11.01;100.00;100629.72;5206060;28;20109;-71
2022/10/15 05:50:28;;;;;;;117.95;29.95;;;;;;;11.07;100.00;100636.22;5206248;28;20067;-71
2022/10/15 05:52:58;;;;;;;130.20;30.70;;;;;;;11.10;100.00;100630.50;5206651;28;20037;-71
2022/10/15 05:55:29;;;;;;;119.32;31.30;;;;;;;11.17;100.00;100625.28;5206342;28;20113;-71
2022/10/15 05:58:01;;;;;;;122.35;31.77;;;;;;;11.24;100.00;100621.69;5205954;28;20057;-72
2022/10/15 06:00:32;;;;;;;111.38;30.95;;;;;;;11.31;100.00;100611.09;5206179;28;20075;-71
2022/10/15 06:03:03;;;;;;;112.22;30.98;;;;;;;11.35;100.00;100615.13;5206048;28;20030;-72
2022/10/15 06:05:34;;;;;;;106.80;29.65;;;;;;;11.39;100.00;100603.81;5206268;28;20172;-72
2022/10/15 06:08:04;;;;;;;109.57;30.83;;;;;;;11.47;100.00;100607.47;5205576;28;20493;-72
2022/10/15 06:10:36;;;;;;;101.40;29.63;;;;;;;11.55;100.00;100597.53;5206131;28;20025;-72
2022/10/15 06:13:07;;;;;;;98.40;29.67;;;;;;;11.59;100.00;100590.75;5205399;28;20395;-71
2022/10/15 06:15:39;;;;;;;98.00;27.85;;;;;;;11.62;100.00;100593.09;5205815;28;20032;-71
2022/10/15 06:18:14;;;;;;;87.40;26.92;;;;;;;11.62;100.00;100592.25;5204474;28;20029;-71
2022/10/15 06:20:52;;;;;;;94.72;29.65;;;;;;;11.62;100.00;100595.78;5206214;28;20260;-71
2022/10/15 06:23:23;;;;;;;92.90;27.55;;;;;;;11.63;100.00;100600.13;5193468;28;20026;-71
2022/10/15 06:25:54;;;;;;;88.00;26.88;;;;;;;11.65;100.00;100602.66;5205915;28;20718;-71
2022/10/15 06:28:24;;;;;;;84.55;27.52;;;;;;;11.66;100.00;100599.78;5205203;28;20040;-71
2022/10/15 06:30:58;;;;;;;85.80;26.73;;;;;;;11.71;100.00;100588.50;5205788;28;20018;-71
2022/10/15 06:33:29;;;;;;;77.38;23.45;;;;;;;11.78;100.00;100596.66;5204633;28;20059;-72
2022/10/15 06:36:05;;;;;;;81.30;24.67;;;;;;;11.83;100.00;100603.19;5205481;28;20044;-71
2022/10/15 06:38:36;;;;;;;77.20;23.35;;;;;;;11.91;100.00;100596.94;5203237;28;20017;-71
2022/10/15 06:41:06;;;;;;;67.05;22.60;;;;;;;12.01;100.00;100596.69;5205654;28;20083;-71
2022/10/15 06:43:37;;;;;;;66.35;22.33;;;;;;;12.10;100.00;100606.34;5205641;28;20383;-71
2022/10/15 06:46:08;;;;;;;61.38;20.52;;;;;;;12.19;100.00;100599.88;5205422;28;20032;-71
2022/10/15 06:48:38;;;;;;;57.30;18.73;;;;;;;12.27;100.00;100612.41;5204959;28;20025;-71
2022/10/15 06:51:10;;;;;;;57.55;18.48;;;;;;;12.36;100.00;100609.47;5205085;28;20025;-71
2022/10/15 06:53:42;;;;;;;49.38;18.67;;;;;;;12.43;100.00;100605.00;5204010;28;20030;-71
2022/10/15 06:56:13;;;;;;;47.42;17.58;;;;;;;12.51;100.00;100605.94;5205360;28;20048;-71
2022/10/15 06:58:43;;;;;;;47.47;16.42;;;;;;;12.55;100.00;100605.41;5204498;28;20079;-71
2022/10/15 07:01:14;;;;;;;47.92;16.65;;;;;;;12.66;100.00;100601.41;5205347;28;20052;-71
2022/10/15 07:03:48;;;;;;;44.17;15.65;;;;;;;12.78;100.00;100593.69;5205147;28;20025;-71
2022/10/15 07:06:18;;;;;;;43.42;15.02;;;;;;;12.82;100.00;100590.44;5203922;28;20056;-71
2022/10/15 07:08:49;;;;;;;38.72;14.77;;;;;;;12.83;100.00;100589.41;5204398;28;20029;-71
2022/10/15 07:11:19;;;;;;;35.92;14.05;;;;;;;12.91;100.00;100578.56;5205177;28;20029;-71
2022/10/15 07:13:50;;;;;;;37.30;13.90;;;;;;;12.93;100.00;100575.66;5204679;28;20040;-72
2022/10/15 07:16:20;;;;;;;40.85;14.60;;;;;;;13.01;100.00;100572.03;5204773;28;20060;-71
2022/10/15 07:18:51;;;;;;;32.10;12.68;;;;;;;13.10;100.00;100571.75;5204394;28;20060;-71
2022/10/15 07:21:21;;;;;;;25.55;11.85;;;;;;;13.20;100.00;100568.72;5203484;28;20025;-71
2022/10/15 07:23:54;;;;;;;27.30;11.65;;;;;;;13.36;100.00;100562.31;5204892;28;20507;-72
2022/10/15 07:26:28;;;;;;;25.60;9.82;;;;;;;13.41;100.00;100560.72;5204184;28;20021;-72
2022/10/15 07:28:59;;;;;;;20.35;9.10;;;;;;;13.50;100.00;100555.19;5203771;28;20029;-71
2022/10/15 07:31:31;;;;;;;22.42;8.43;;;;;;;13.61;100.00;100555.53;5204349;28;20108;-71
2022/10/15 07:34:01;;;;;;;20.63;8.93;;;;;;;13.57;100.00;100565.00;5204333;28;20029;-72
2022/10/15 07:36:31;;;;;;;15.13;7.80;;;;;;;13.64;100.00;100548.91;5203977;28;20044;-71
2022/10/15 07:39:02;;;;;;;15.52;7.53;;;;;;;13.85;100.00;100551.56;5203469;28;20410;-72
2022/10/15 07:41:33;;;;;;;14.98;7.50;;;;;;;13.95;100.00;100553.94;5204399;28;20017;-72
2022/10/15 07:44:03;;;;;;;17.80;6.90;;;;;;;14.00;100.00;100546.91;5204344;28;20041;-72
2022/10/15 07:46:34;;;;;;;17.45;7.05;;;;;;;14.04;100.00;100533.03;5204024;28;20025;-71
2022/10/15 07:49:05;;;;;;;13.48;6.43;;;;;;;14.12;100.00;100525.66;5203699;28;20017;-71
2022/10/15 07:51:35;;;;;;;14.07;5.95;;;;;;;14.20;100.00;100533.56;5203995;28;20034;-71
2022/10/15 07:54:06;;;;;;;12.30;5.82;;;;;;;14.36;100.00;100527.06;5204296;28;20074;-72
2022/10/15 07:56:36;;;;;;;10.68;5.63;;;;;;;14.57;100.00;100525.31;5203923;28;20098;-71
2022/10/15 07:59:07;;;;;;;11.45;5.88;;;;;;;14.73;100.00;100525.81;5203703;28;20022;-72
2022/10/15 08:01:38;;;;;;;9.85;5.43;;;;;;;14.80;100.00;100535.78;5203614;28;20065;-72
2022/10/15 08:04:08;;;;;;;8.05;5.00;;;;;;;14.80;100.00;100530.41;5204183;28;20506;-72
2022/10/15 08:06:39;;;;;;;8.85;5.00;;;;;;;14.92;100.00;100524.22;5203513;28;20036;-71
2022/10/15 08:09:09;;;;;;;9.52;5.13;;;;;;;14.93;100.00;100517.78;5203541;28;20541;-71
2022/10/15 08:11:40;;;;;;;9.48;5.13;;;;;;;15.01;100.00;100516.78;5202910;28;20028;-72
2022/10/15 08:14:13;;;;;;;9.38;4.80;;;;;;;15.04;100.00;100516.34;5203714;28;20022;-72
2022/10/15 08:16:44;;;;;;;11.65;5.47;;;;;;;15.09;100.00;100513.88;5203398;28;20052;-72
2022/10/15 08:19:16;;;;;;;12.50;4.75;;;;;;;15.07;100.00;100518.66;5203456;28;20049;-72
2022/10/15 08:21:47;;;;;;;16.33;5.50;;;;;;;14.97;100.00;100515.50;5203693;28;20053;-72
2022/10/15 08:24:17;;;;;;;7.50;3.80;;;;;;;14.88;100.00;100522.13;5203711;28;20541;-73
2022/10/15 08:26:48;;;;;;;5.93;3.97;;;;;;;14.74;100.00;100511.25;5202854;28;20021;-72
2022/10/15 08:29:18;;;;;;;6.18;3.88;;;;;;;14.74;100.00;100513.97;5203374;28;20117;-72
2022/10/15 08:31:49;;;;;;;7.55;3.80;;;;;;;14.70;100.00;100506.47;5203472;28;20388;-72
2022/10/15 08:34:20;;;;;;;6.82;3.60;;;;;;;14.67;100.00;100496.91;5203229;28;20032;-72
2022/10/15 08:36:51;;;;;;;5.57;3.38;;;;;;;14.72;100.00;100507.94;5202612;28;20037;-72
2022/10/15 08:39:22;;;;;;;5.80;3.83;;;;;;;14.76;100.00;100513.78;5201785;28;20120;-72
2022/10/15 08:41:55;;;;;;;5.68;3.58;;;;;;;14.75;100.00;100512.09;5203459;28;20499;-72
2022/10/15 08:44:37;;;;;;;4.70;3.05;;;;;;;14.81;100.00;100514.00;5203900;28;20025;-72
2022/10/15 08:47:23;;;;;;;6.93;3.55;;;;;;;14.93;100.00;100496.19;5202705;28;20029;-72
2022/10/15 08:49:56;;;;;;;5.38;3.17;;;;;;;14.95;100.00;100495.97;5203188;28;20032;-72
2022/10/15 08:52:44;;;;;;;5.47;3.67;;;;;;;15.00;100.00;100498.88;5203287;28;20033;-72
2022/10/15 08:55:20;;;;;;;6.95;3.15;;;;;;;15.07;100.00;100504.31;5203582;28;20025;-72
2022/10/15 08:58:18;;;;;;;4.20;2.75;;;;;;;15.12;100.00;100510.78;5202545;28;20049;-72
2022/10/15 09:00:58;;;;;;;4.18;2.60;;;;;;;15.10;100.00;100501.19;5192156;28;20029;-72
2022/10/15 09:03:48;;;;;;;4.10;2.40;;;;;;;15.19;100.00;100499.97;5203233;28;20053;-70
2022/10/15 09:06:32;;;;;;;5.93;2.80;;;;;;;15.27;100.00;100500.63;5202882;28;20017;-72
2022/10/15 09:09:21;;;;;;;5.30;2.53;;;;;;;15.29;100.00;100503.94;5202846;28;20029;-71
2022/10/15 09:12:15;;;;;;;3.33;2.35;;;;;;;15.33;100.00;100508.94;5203087;28;20026;-71
2022/10/15 09:14:47;;;;;;;4.35;2.42;;;;;;;15.39;100.00;100508.13;5202764;28;20503;-72
2022/10/15 09:17:23;;;;;;;2.67;1.75;;;;;;;15.39;100.00;100505.41;5202743;28;20282;-72
2022/10/15 09:19:56;;;;;;;4.97;1.92;;;;;;;15.53;100.00;100496.28;5203149;28;20051;-71
2022/10/15 09:22:30;;;;;;;3.17;1.60;;;;;;;15.58;100.00;100503.78;5201790;28;20034;-70
2022/10/15 09:25:14;;;;;;;2.85;1.38;;;;;;;15.54;100.00;100501.47;5202873;28;20487;-71
2022/10/15 09:27:47;;;;;;;1.60;1.13;;;;;;;15.55;100.00;100492.31;5202182;28;20120;-72
2022/10/15 09:30:35;;;;;;;2.72;1.13;;;;;;;15.63;100.00;100498.59;5202877;28;20048;-71
2022/10/15 09:33:24;;;;;;;1.33;1.05;;;;;;;15.71;100.00;100496.53;5190783;28;20087;-71
2022/10/15 09:36:04;;;;;;;3.53;0.90;;;;;;;15.82;100.00;100492.38;5202810;28;20025;-71
2022/10/15 09:38:42;;;;;;;3.00;0.95;;;;;;;15.89;100.00;100497.75;5202346;28;20033;-71
2022/10/15 09:41:53;;;;;;;4.20;1.05;;;;;;;15.91;100.00;100487.56;5190500;28;20033;-71
2022/10/15 09:44:31;;;;;;;1.88;1.17;;;;;;;15.96;100.00;100487.75;5203109;28;20021;-71
2022/10/15 09:47:14;;;;;;;1.30;0.82;;;;;;;16.01;100.00;100491.53;5202937;28;20407;-71
2022/10/15 09:49:45;;;;;;;2.10;1.00;;;;;;;16.08;100.00;100496.09;5206674;28;20092;-72
2022/10/15 09:52:50;;;;;;;1.58;1.30;;;;;;;16.04;100.00;100490.25;5206249;28;20017;-70
2022/10/15 09:55:39;;;;;;;1.88;1.30;;;;;;;16.11;100.00;100485.66;5198388;28;20037;-71
2022/10/15 09:58:24;;;;;;;2.25;0.93;;;;;;;16.14;100.00;100489.81;5205945;28;20112;-71
2022/10/15 10:00:55;;;;;;;2.77;1.33;;;;;;;16.18;100.00;100491.91;5206524;28;20030;-71
2022/10/15 10:03:31;;;;;;;2.50;1.48;;;;;;;16.18;100.00;100491.91;5206268;28;20557;-70
2022/10/15 10:06:13;;;;;;;2.30;1.50;;;;;;;16.29;100.00;100498.53;5206399;28;20044;-70
2022/10/15 10:08:51;;;;;;;1.00;0.80;;;;;;;16.45;100.00;100489.09;5205301;28;20013;-71
2022/10/15 10:11:24;;;;;;;2.40;0.82;;;;;;;16.49;100.00;100493.06;5206070;28;20029;-71
2022/10/15 10:13:57;;;;;;;2.80;1.40;;;;;;;16.65;100.00;100489.03;5206229;28;20035;-71
2022/10/15 10:16:30;;;;;;;1.33;1.17;;;;;;;16.83;100.00;100495.44;5205806;28;20402;-71
2022/10/15 10:19:13;;;;;;;3.25;1.45;;;;;;;16.91;100.00;100501.66;5205665;28;20519;-71
2022/10/15 10:21:44;;;;;;;1.67;0.98;;;;;;;16.91;100.00;100507.06;5205802;28;20032;-71
2022/10/15 10:24:33;;;;;;;1.27;1.17;;;;;;;16.95;100.00;100501.00;5205961;28;20021;-71
2022/10/15 10:27:16;;;;;;;0.70;0.70;;;;;;;17.01;100.00;100502.84;5205436;28;20445;-70
2022/10/15 10:30:01;;;;;;;2.42;0.95;;;;;;;17.03;100.00;100508.06;5205448;28;20021;-71
2022/10/15 10:32:33;;;;;;;1.45;0.80;;;;;;;16.92;100.00;100503.31;5202155;28;20057;-71
2022/10/15 10:35:05;;;;;;;1.75;1.40;;;;;;;16.97;100.00;100500.81;5206159;28;20696;-71
2022/10/15 10:37:42;;;;;;;1.92;1.45;;;;;;;16.90;100.00;100505.41;5205124;28;20438;-71
2022/10/15 10:40:27;;;;;;;1.75;1.13;;;;;;;17.04;100.00;100502.44;5205135;28;20439;-71
2022/10/15 10:43:16;;;;;;;4.30;1.90;;;;;;;17.13;100.00;100505.72;5205752;28;20088;-71
2022/10/15 10:46:01;;;;;;;5.18;1.55;;;;;;;17.31;100.00;100511.22;5204455;28;20033;-71
2022/10/15 10:48:42;;;;;;;;;;;;;;;17.41;100.00;100509.91;5203567;28;20100;-71
2022/10/15 10:51:22;;;;;;;2.00;1.20;;;;;;;17.49;100.00;100504.22;5204274;28;19916;-71
2022/10/15 10:53:56;;;;;;;1.90;1.10;;;;;;;17.58;100.00;100508.34;5205192;28;20029;-71
2022/10/15 10:56:33;;;;;;;0.93;0.87;;;;;;;17.43;100.00;100503.22;5205310;28;20470;-71
2022/10/15 10:59:17;;;;;;;18.67;15.25;;;;;;;17.50;100.00;100506.72;5191740;28;20827;-70
2022/10/15 11:01:47;;;;;;;1.50;1.20;;;;;;;17.58;100.00;100511.06;5203928;28;20555;-71
2022/10/15 11:04:23;;;;;;;2.00;1.50;;;;;;;17.58;100.00;100508.34;5205358;28;20109;-71
2022/10/15 11:07:03;;;;;;;1.20;1.10;;;;;;;17.72;100.00;100504.47;5204463;28;20036;-71
2022/10/15 11:09:53;;;;;;;3.03;1.30;;;;;;;17.70;100.00;100511.97;5204683;28;20021;-71
2022/10/15 11:12:54;;;;;;;2.00;1.40;;;;;;;17.69;100.00;100517.63;5205181;28;20033;-70
2022/10/15 11:15:36;;;;;;;3.67;1.25;;;;;;;17.82;100.00;100512.97;5205048;28;20030;-70
2022/10/15 11:18:16;;;;;;;2.83;1.63;;;;;;;17.86;100.00;100514.16;5204154;28;20055;-71
2022/10/15 11:21:01;;;;;;;2.70;2.00;;;;;;;17.91;100.00;100512.69;5205036;28;20443;-71
2022/10/15 11:23:55;;;;;;;3.28;1.90;;;;;;;17.91;100.00;100518.09;5204815;28;20112;-71
2022/10/15 11:26:43;;;;;;;2.65;1.65;;;;;;;18.03;100.00;100510.91;5204875;28;20021;-71
2022/10/15 11:29:14;;;;;;;2.70;1.75;;;;;;;17.97;100.00;100511.78;5204129;28;20029;-70
2022/10/15 11:32:03;;;;;;;3.15;1.67;;;;;;;18.05;100.00;100511.50;5204615;28;20104;-70
2022/10/15 11:35:10;;;;;;;4.90;1.75;;;;;;;18.07;100.00;100514.81;5204570;28;21038;-71
2022/10/15 11:38:07;;;;;;;5.75;2.10;;;;;;;18.30;100.00;100511.47;5202014;28;20491;-71
2022/10/15 11:40:52;;;;;;;1.50;1.40;;;;;;;18.52;100.00;100512.66;5204096;28;20029;-71
2022/10/15 11:43:41;;;;;;;;;;;;;;;18.65;100.00;100511.69;5204919;28;20026;-71